Time;durP1;ratioP1;P1;durP2;ratioP2;P2;SDS_P1;SDS_P2;PMS_P1;PMS_P2;Temp;Humidity;BMP_temperature;BMP_pressure;BME280_temperature;BME280_humidity;BME280_pressure;Samples;Min_cycle;Max_cycle;Signal;HPM_P1;HPM_P2
2021/09/18 04:00:08;;;;;;;1.17;1.07;;;10.70;96.30;;;;;;6080715;23;20401;31
2021/09/18 04:02:34;;;;;;;2.30;1.20;;;10.70;96.30;;;;;;4920602;29;21030;-78
2021/09/18 04:05:00;;;;;;;1.67;1.20;;;10.60;96.30;;;;;;4931984;29;20439;-79
2021/09/18 04:07:25;;;;;;;1.57;1.27;;;10.60;96.30;;;;;;4934685;29;20179;-79
2021/09/18 04:09:51;;;;;;;4.60;1.50;;;10.60;96.30;;;;;;4935767;29;20190;-79
2021/09/18 04:12:16;;;;;;;2.60;1.50;;;10.60;96.30;;;;;;4935394;29;20754;-78
2021/09/18 04:14:42;;;;;;;1.97;1.30;;;10.60;96.30;;;;;;4936134;29;20176;-78
2021/09/18 04:17:08;;;;;;;4.70;1.00;;;10.60;96.30;;;;;;4934682;29;20190;-78
2021/09/18 04:19:33;;;;;;;2.90;1.23;;;10.60;96.30;;;;;;4934257;29;20234;-79
2021/09/18 04:40:08;;;;;;;3.20;1.10;;;10.50;96.30;;;;;;5031097;23;20840;-79
2021/09/18 04:42:33;;;;;;;1.80;1.50;;;10.50;96.30;;;;;;4955501;28;20411;-77
2021/09/18 04:44:59;;;;;;;1.83;1.10;;;10.50;96.30;;;;;;4954477;28;20421;-79
2021/09/18 04:47:24;;;;;;;1.40;1.30;;;10.50;96.30;;;;;;4954068;28;20376;-80
2021/09/18 04:49:50;;;;;;;1.87;1.30;;;10.50;96.30;;;;;;4952745;28;20595;-80
2021/09/18 04:52:15;;;;;;;2.10;1.30;;;10.50;96.30;;;;;;4953640;28;20206;-80
2021/09/18 04:54:41;;;;;;;2.90;1.63;;;10.50;96.30;;;;;;4954273;28;20189;-80
2021/09/18 04:57:06;;;;;;;1.80;1.23;;;10.50;96.30;;;;;;4953230;28;20211;-80
2021/09/18 04:59:32;;;;;;;1.40;1.30;;;10.50;96.30;;;;;;4953043;28;20215;-80
2021/09/18 05:01:57;;;;;;;3.10;1.50;;;10.50;96.30;;;;;;4954042;28;20222;-79
2021/09/18 05:04:23;;;;;;;7.80;1.60;;;10.50;96.30;;;;;;4955861;28;20180;-79
2021/09/18 05:06:48;;;;;;;3.87;1.50;;;10.50;96.30;;;;;;4954452;28;20202;-79
2021/09/18 05:09:14;;;;;;;3.93;1.70;;;10.50;96.30;;;;;;4954280;28;20205;-79
2021/09/18 05:11:40;;;;;;;2.80;1.40;;;10.60;96.30;;;;;;4954859;28;20199;-78
2021/09/18 05:14:05;;;;;;;4.13;1.50;;;10.60;96.30;;;;;;4954255;29;20262;-78
2021/09/18 05:16:31;;;;;;;2.60;1.30;;;10.60;96.30;;;;;;4954538;28;20430;-79
2021/09/18 05:18:57;;;;;;;4.10;1.70;;;10.60;96.30;;;;;;4955913;28;20247;-79
2021/09/18 05:21:23;;;;;;;2.13;1.87;;;10.60;96.30;;;;;;4954448;28;20687;-79
2021/09/18 05:23:49;;;;;;;4.50;1.70;;;10.60;96.30;;;;;;4954500;28;20429;-78
2021/09/18 05:26:15;;;;;;;4.90;1.57;;;10.60;96.30;;;;;;4954459;29;20230;-78
2021/09/18 05:28:41;;;;;;;1.60;1.40;;;10.60;96.30;;;;;;4959604;28;20415;-78
2021/09/18 05:31:06;;;;;;;2.60;1.67;;;10.60;96.30;;;;;;4954271;28;20671;-79
2021/09/18 05:33:32;;;;;;;2.37;1.73;;;10.60;96.30;;;;;;4953761;28;20187;-79
2021/09/18 05:35:57;;;;;;;1.40;1.13;;;10.50;96.30;;;;;;4952376;29;20218;-80
2021/09/18 05:38:23;;;;;;;4.60;1.70;;;10.60;96.30;;;;;;4952436;29;20225;-80
2021/09/18 05:40:48;;;;;;;5.47;1.80;;;10.60;96.30;;;;;;4954540;28;20684;-80
2021/09/18 05:43:14;;;;;;;1.47;1.37;;;10.60;96.30;;;;;;4956534;28;20179;-80
2021/09/18 05:45:39;;;;;;;4.17;1.80;;;10.60;96.30;;;;;;4955612;29;20759;-80
2021/09/18 05:48:05;;;;;;;2.17;1.77;;;10.60;96.30;;;;;;4956783;29;20190;-80
2021/09/18 05:50:31;;;;;;;2.60;1.67;;;10.60;96.30;;;;;;4956489;28;20213;-79
2021/09/18 05:52:57;;;;;;;3.60;1.57;;;10.60;96.30;;;;;;4956842;28;20187;-80
2021/09/18 05:55:22;;;;;;;2.37;1.90;;;10.60;96.30;;;;;;4956115;29;20470;-79
2021/09/18 05:57:48;;;;;;;2.17;1.60;;;10.70;96.30;;;;;;4955925;29;20178;-80
2021/09/18 06:00:14;;;;;;;1.90;1.57;;;10.70;96.30;;;;;;4955358;28;20206;-80
2021/09/18 06:02:41;;;;;;;5.00;1.57;;;10.70;96.30;;;;;;4955248;29;20179;-80
2021/09/18 06:05:08;;;;;;;2.93;1.60;;;10.70;96.30;;;;;;4956326;29;20175;-78
2021/09/18 06:07:34;;;;;;;6.47;2.07;;;10.80;96.30;;;;;;4956571;29;20796;-80
2021/09/18 06:10:00;;;;;;;3.40;1.60;;;10.80;96.30;;;;;;4956799;28;20419;-79
2021/09/18 06:12:25;;;;;;;1.90;1.57;;;10.90;96.30;;;;;;4955161;28;20225;-80
2021/09/18 06:14:50;;;;;;;4.13;1.40;;;10.90;96.30;;;;;;4958440;28;20654;-80
2021/09/18 06:17:16;;;;;;;1.40;1.30;;;10.90;96.30;;;;;;4958196;28;20183;-79
2021/09/18 06:19:41;;;;;;;3.33;1.83;;;11.00;96.30;;;;;;4956505;29;20595;-78
2021/09/18 06:22:07;;;;;;;2.90;1.43;;;11.00;96.30;;;;;;4957971;28;20670;-78
2021/09/18 06:24:32;;;;;;;1.70;1.47;;;11.00;96.30;;;;;;4958684;28;20172;-79
2021/09/18 06:26:58;;;;;;;4.97;1.50;;;11.10;96.30;;;;;;4945914;29;20184;-79
2021/09/18 06:29:26;;;;;;;2.53;1.60;;;11.10;96.30;;;;;;4940701;29;20263;-78
2021/09/18 06:31:52;;;;;;;7.93;1.83;;;11.20;96.30;;;;;;4943130;29;20219;-79
2021/09/18 06:34:17;;;;;;;5.80;1.57;;;11.30;96.30;;;;;;4936111;29;20451;-80
2021/09/18 06:36:43;;;;;;;3.53;2.63;;;11.30;96.30;;;;;;4937641;29;20182;-79
2021/09/18 06:39:08;;;;;;;3.23;1.37;;;11.30;96.30;;;;;;4937594;29;20211;-80
2021/09/18 06:41:34;;;;;;;3.87;1.60;;;11.30;96.30;;;;;;4936314;29;20948;-79
2021/09/18 06:43:59;;;;;;;2.53;1.30;;;11.30;96.30;;;;;;4937711;29;20184;-80
2021/09/18 06:46:25;;;;;;;2.73;1.37;;;11.40;96.30;;;;;;4936544;29;20211;-78
2021/09/18 06:48:50;;;;;;;5.17;1.43;;;11.50;96.30;;;;;;4938240;29;20183;-79
2021/09/18 06:51:16;;;;;;;3.60;1.57;;;11.50;96.30;;;;;;4936512;29;20646;-80
2021/09/18 06:53:42;;;;;;;2.20;1.40;;;11.50;96.30;;;;;;4939126;29;20862;-80
2021/09/18 06:56:07;;;;;;;1.97;1.13;;;11.60;96.30;;;;;;4936920;29;20266;-80
2021/09/18 06:58:33;;;;;;;1.57;1.30;;;11.70;96.30;;;;;;4937406;29;20652;-80
2021/09/18 07:00:58;;;;;;;1.60;1.10;;;11.90;96.30;;;;;;4937357;29;20222;-78
2021/09/18 07:03:25;;;;;;;3.67;1.47;;;12.00;96.30;;;;;;4938242;29;20677;-80
2021/09/18 07:05:51;;;;;;;1.70;1.27;;;12.10;96.30;;;;;;4938537;29;20172;-79
2021/09/18 07:08:16;;;;;;;1.40;1.10;;;12.10;96.30;;;;;;4936419;29;20422;-80
2021/09/18 07:10:42;;;;;;;4.03;0.93;;;12.20;96.30;;;;;;4936502;29;20290;-79
2021/09/18 07:13:07;;;;;;;2.40;1.10;;;12.20;96.30;;;;;;4935539;29;20235;-79
2021/09/18 07:15:32;;;;;;;1.63;1.03;;;12.30;96.30;;;;;;4935914;29;20219;-80
2021/09/18 07:17:58;;;;;;;3.50;1.20;;;12.30;96.30;;;;;;4937669;29;20175;-80
2021/09/18 07:20:23;;;;;;;2.23;1.10;;;12.30;96.30;;;;;;4935884;29;20639;-80
2021/09/18 07:22:49;;;;;;;2.90;1.20;;;12.20;96.30;;;;;;4937792;29;20226;-78
2021/09/18 07:25:14;;;;;;;1.47;1.30;;;12.20;96.30;;;;;;4939950;29;20179;-78
2021/09/18 07:27:41;;;;;;;1.40;1.30;;;12.20;96.30;;;;;;4957789;29;20179;-78
2021/09/18 07:30:07;;;;;;;2.83;1.30;;;12.20;96.30;;;;;;4960760;28;20190;-79
2021/09/18 07:32:33;;;;;;;2.03;1.17;;;12.20;96.30;;;;;;4961260;28;20442;-78
2021/09/18 07:35:05;;;;;;;14.73;1.67;;;12.30;96.30;;;;;;4958502;28;20992;-79
2021/09/18 07:37:31;;;;;;;1.40;1.30;;;12.40;96.30;;;;;;4954722;29;20579;-80
2021/09/18 07:39:56;;;;;;;3.90;1.87;;;12.40;96.30;;;;;;4954111;29;20525;-79
2021/09/18 07:42:22;;;;;;;2.20;2.00;;;12.40;96.30;;;;;;4954575;28;20199;-79
2021/09/18 07:44:47;;;;;;;2.20;2.00;;;12.50;96.30;;;;;;4955784;28;20264;-79
2021/09/18 07:47:13;;;;;;;2.60;2.40;;;12.50;96.30;;;;;;4954278;29;20222;-80
2021/09/18 07:49:38;;;;;;;3.17;2.03;;;12.50;96.30;;;;;;4953925;29;20242;-79
2021/09/18 07:52:04;;;;;;;2.30;2.10;;;12.30;96.30;;;;;;4952918;28;20544;-79
2021/09/18 07:54:31;;;;;;;2.17;1.97;;;12.30;96.30;;;;;;4954857;28;20214;-79
2021/09/18 07:56:57;;;;;;;2.87;2.00;;;12.40;96.30;;;;;;4955161;28;20414;-79
2021/09/18 07:59:22;;;;;;;2.70;2.50;;;12.50;96.30;;;;;;4954701;28;20472;-79
2021/09/18 08:01:48;;;;;;;2.53;2.33;;;12.50;96.30;;;;;;4952974;28;20199;-80
2021/09/18 08:04:13;;;;;;;3.67;2.10;;;12.60;96.30;;;;;;4955018;29;20179;-78
2021/09/18 08:06:40;;;;;;;5.43;2.10;;;12.60;96.30;;;;;;4957929;29;20186;-78
2021/09/18 08:09:08;;;;;;;1.80;1.67;;;12.60;96.30;;;;;;4956295;28;20175;-79
2021/09/18 08:11:33;;;;;;;1.90;1.80;;;12.80;96.30;;;;;;4953677;28;20534;-80
2021/09/18 08:13:59;;;;;;;3.30;2.40;;;12.90;96.30;;;;;;4954960;28;20853;-79
2021/09/18 08:16:25;;;;;;;2.90;1.80;;;13.00;96.30;;;;;;4954756;28;20174;-79
2021/09/18 08:18:51;;;;;;;2.20;1.93;;;12.90;96.30;;;;;;4954162;29;20427;-79
2021/09/18 08:21:17;;;;;;;2.07;1.70;;;13.10;96.30;;;;;;4954739;28;20813;-79
2021/09/18 08:23:43;;;;;;;3.30;1.90;;;13.30;96.30;;;;;;4954893;28;20192;-80
2021/09/18 08:26:09;;;;;;;2.27;1.63;;;13.40;96.30;;;;;;4956348;29;20491;-80
2021/09/18 08:28:35;;;;;;;1.70;1.60;;;13.60;96.30;;;;;;4956729;28;20167;-79
2021/09/18 08:31:01;;;;;;;1.60;1.30;;;13.70;96.30;;;;;;4957873;28;20442;-78
2021/09/18 08:33:27;;;;;;;1.57;1.30;;;13.80;96.30;;;;;;4955998;28;20667;-78
2021/09/18 08:35:53;;;;;;;1.93;1.20;;;13.60;96.30;;;;;;4958236;28;20179;-80
2021/09/18 08:38:19;;;;;;;2.07;1.20;;;13.60;96.30;;;;;;4959755;28;20811;-79
2021/09/18 08:40:46;;;;;;;1.43;1.07;;;13.50;96.30;;;;;;4958057;28;20225;-80
2021/09/18 08:43:12;;;;;;;1.20;1.10;;;13.50;96.30;;;;;;4957716;28;20481;-79
2021/09/18 08:45:37;;;;;;;1.53;1.23;;;13.50;96.30;;;;;;4957262;29;20474;-81
2021/09/18 08:48:05;;;;;;;4.47;1.37;;;13.30;96.30;;;;;;4957554;28;20454;-80
2021/09/18 08:50:32;;;;;;;2.37;1.13;;;13.30;96.30;;;;;;4954338;28;20730;-78
2021/09/18 08:52:57;;;;;;;2.90;1.23;;;13.20;96.30;;;;;;4953723;28;20969;-78
2021/09/18 08:55:24;;;;;;;1.57;1.10;;;13.20;96.30;;;;;;4955195;29;20458;-79
2021/09/18 08:57:50;;;;;;;1.60;1.20;;;13.40;96.30;;;;;;4960175;28;20643;-82
2021/09/18 09:00:31;;;;;;;1.77;1.10;;;13.30;96.30;;;;;;4978568;28;20489;-81
2021/09/18 09:02:58;;;;;;;1.37;1.03;;;13.30;96.30;;;;;;4972867;28;20214;-78
2021/09/18 09:05:29;;;;;;;2.57;1.50;;;13.20;96.30;;;;;;4954993;29;20437;-78
2021/09/18 09:08:27;;;;;;;1.80;1.20;;;13.20;96.30;;;;;;4955621;28;20414;-79
2021/09/18 09:10:53;;;;;;;2.30;1.03;;;13.40;96.30;;;;;;4937977;28;20537;-79
2021/09/18 09:13:23;;;;;;;1.50;1.20;;;13.60;96.30;;;;;;4954714;28;20438;-78
2021/09/18 09:15:51;;;;;;;1.43;1.10;;;13.90;96.30;;;;;;4956239;29;20430;-80
2021/09/18 09:18:28;;;;;;;2.20;1.00;;;14.20;96.30;;;;;;4958816;28;20406;-78
2021/09/18 09:21:16;;;;;;;1.27;1.00;;;14.40;96.30;;;;;;4957316;28;20474;-79
2021/09/18 09:23:43;;;;;;;4.43;1.07;;;14.60;96.30;;;;;;4958109;28;20879;-78
2021/09/18 09:26:09;;;;;;;2.13;0.93;;;14.60;96.30;;;;;;4956857;29;20426;-79
2021/09/18 09:28:38;;;;;;;1.20;0.90;;;14.40;96.30;;;;;;4956563;28;20422;-79
2021/09/18 09:31:12;;;;;;;1.40;0.70;;;14.30;96.30;;;;;;4957532;28;20442;-78
2021/09/18 09:34:01;;;;;;;1.50;0.80;;;14.50;96.30;;;;;;4957357;28;20414;-79
2021/09/18 09:36:28;;;;;;;0.97;0.80;;;14.70;96.30;;;;;;4958277;29;20422;-78
2021/09/18 09:39:01;;;;;;;1.67;1.30;;;14.70;96.30;;;;;;4957978;28;20786;-79
2021/09/18 09:41:49;;;;;;;1.50;0.87;;;14.60;96.30;;;;;;4957506;28;20879;-78
2021/09/18 09:44:19;;;;;;;2.73;1.57;;;14.40;96.30;;;;;;4958415;28;20469;-78
2021/09/18 09:47:10;;;;;;;1.00;0.83;;;14.40;96.30;;;;;;4957909;28;20882;-78
2021/09/18 09:49:46;;;;;;;1.40;1.03;;;14.40;96.30;;;;;;4958104;28;20791;-78
2021/09/18 09:52:28;;;;;;;3.83;0.90;;;14.40;96.30;;;;;;4957594;28;20859;-78
2021/09/18 09:54:58;;;;;;;3.00;1.10;;;14.10;96.30;;;;;;4958125;28;20410;-79
2021/09/18 09:57:24;;;;;;;1.53;1.00;;;14.00;96.30;;;;;;4956571;29;20414;-78
2021/09/18 09:59:58;;;;;;;1.93;1.07;;;14.10;96.30;;;;;;4957706;28;20491;-78
2021/09/18 10:02:23;;;;;;;1.70;1.10;;;14.20;96.30;;;;;;4957084;28;20434;-79
2021/09/18 10:04:50;;;;;;;1.30;1.20;;;14.20;96.30;;;;;;4957267;28;20922;-78
2021/09/18 10:07:16;;;;;;;1.67;1.07;;;14.40;96.30;;;;;;4956211;29;20183;-78
2021/09/18 10:09:43;;;;;;;1.43;0.80;;;14.50;96.30;;;;;;4957050;28;20419;-78
2021/09/18 10:12:13;;;;;;;4.20;1.20;;;14.40;96.30;;;;;;4955602;28;20207;-79
2021/09/18 10:14:41;;;;;;;1.73;1.30;;;14.40;96.30;;;;;;4956936;28;20433;-78
2021/09/18 10:17:07;;;;;;;1.93;1.00;;;14.30;96.30;;;;;;4958756;28;20916;-78
2021/09/18 10:25:15;;;;;;;1.90;1.00;;;14.30;96.30;;;;;;4934876;29;20419;-78
2021/09/18 10:28:16;;;;;;;3.47;1.53;;;14.40;96.30;;;;;;4949806;29;20418;-80
2021/09/18 10:30:51;;;;;;;1.50;1.00;;;14.50;96.30;;;;;;4948877;28;20812;-78
2021/09/18 10:33:38;;;;;;;3.33;1.20;;;14.50;96.30;;;;;;4954613;29;20505;-78
2021/09/18 10:36:31;;;;;;;3.80;1.10;;;14.60;96.30;;;;;;4957383;28;20418;-80
2021/09/18 10:39:16;;;;;;;3.40;1.30;;;14.60;96.30;;;;;;4955854;29;20447;-78
2021/09/18 10:41:44;;;;;;;2.33;1.20;;;14.70;96.30;;;;;;4954658;28;20473;-80
2021/09/18 10:44:11;;;;;;;1.50;1.07;;;14.80;96.30;;;;;;4956167;28;20769;-79
2021/09/18 10:46:44;;;;;;;2.23;1.33;;;14.70;96.30;;;;;;4956472;28;20439;-78
2021/09/18 10:49:35;;;;;;;1.13;0.90;;;14.60;96.30;;;;;;4956681;28;20401;-78
2021/09/18 10:52:30;;;;;;;1.73;1.20;;;14.50;96.30;;;;;;4955205;28;20465;-78
2021/09/18 10:55:10;;;;;;;3.70;1.83;;;14.60;96.30;;;;;;4955802;28;20417;-78
2021/09/18 10:57:41;;;;;;;2.50;1.40;;;14.70;96.30;;;;;;4956136;28;20413;-79
2021/09/18 11:00:07;;;;;;;2.47;1.90;;;14.50;96.30;;;;;;4955778;28;20443;-78
2021/09/18 11:02:33;;;;;;;3.20;1.90;;;14.30;96.30;;;;;;4955654;28;20482;-77
2021/09/18 11:04:59;;;;;;;2.90;2.47;;;14.20;96.30;;;;;;4956156;28;20629;-81
2021/09/18 11:07:39;;;;;;;2.13;1.90;;;14.10;96.30;;;;;;4955999;28;20175;-80
2021/09/18 11:10:10;;;;;;;2.60;1.87;;;14.30;96.30;;;;;;4956123;28;20406;-78
2021/09/18 11:12:37;;;;;;;5.27;2.00;;;14.50;96.30;;;;;;4955268;28;20820;-78
2021/09/18 11:15:11;;;;;;;5.60;2.50;;;14.50;96.30;;;;;;4954632;29;20513;-80
2021/09/18 11:17:42;;;;;;;3.63;2.43;;;14.60;96.30;;;;;;4955877;28;20422;-79
2021/09/18 11:20:19;;;;;;;4.50;2.60;;;14.60;96.30;;;;;;4955613;28;20439;-78
2021/09/18 11:22:52;;;;;;;2.60;2.40;;;14.60;96.30;;;;;;4955048;28;20413;-78
2021/09/18 11:25:34;;;;;;;3.37;2.20;;;14.40;96.30;;;;;;4955387;28;20395;-78
2021/09/18 11:28:01;;;;;;;3.70;2.50;;;14.40;96.30;;;;;;4955226;28;20430;-79
2021/09/18 11:30:46;;;;;;;3.50;2.53;;;14.40;96.30;;;;;;4955182;28;20422;-80
2021/09/18 11:33:15;;;;;;;4.57;2.30;;;14.30;96.30;;;;;;4954434;28;20426;-80
2021/09/18 11:36:02;;;;;;;4.60;2.63;;;14.30;96.30;;;;;;4955097;28;20415;-78
2021/09/18 11:38:33;;;;;;;4.40;2.40;;;14.20;96.30;;;;;;4954928;28;20511;-79
2021/09/18 11:41:13;;;;;;;3.20;2.30;;;14.10;96.30;;;;;;4955305;28;20466;-83
2021/09/18 11:43:41;;;;;;;3.20;2.50;;;14.10;96.30;;;;;;4955822;28;20409;-78
2021/09/18 11:46:08;;;;;;;2.87;2.47;;;14.20;96.30;;;;;;4955526;28;20864;-78
2021/09/18 11:48:34;;;;;;;2.83;2.40;;;14.30;96.30;;;;;;4954459;29;20822;-78
2021/09/18 11:51:02;;;;;;;3.60;2.30;;;14.30;96.30;;;;;;4953505;28;20438;-78
2021/09/18 11:53:28;;;;;;;2.70;2.00;;;14.40;96.30;;;;;;4955446;28;20175;-78
2021/09/18 11:55:56;;;;;;;3.30;1.90;;;14.60;96.30;;;;;;4955120;28;20413;-80
2021/09/18 11:58:28;;;;;;;2.70;2.27;;;14.60;96.30;;;;;;4955077;28;20414;-78
2021/09/18 12:00:56;;;;;;;4.83;2.13;;;14.70;96.30;;;;;;4954901;28;20458;-78
2021/09/18 12:03:36;;;;;;;7.07;1.73;;;14.70;96.30;;;;;;4954835;28;20411;-78
2021/09/18 12:06:04;;;;;;;3.00;1.70;;;14.60;96.30;;;;;;4955120;28;20399;-78
2021/09/18 12:08:32;;;;;;;4.13;1.77;;;14.50;96.30;;;;;;4954440;28;20422;-78
2021/09/18 12:11:07;;;;;;;2.50;2.10;;;14.60;96.30;;;;;;4953021;28;20445;-78
2021/09/18 12:13:41;;;;;;;2.50;2.30;;;14.70;96.30;;;;;;4954707;28;20395;-79
2021/09/18 12:16:07;;;;;;;2.13;1.80;;;14.80;96.30;;;;;;4954682;28;20844;-78
2021/09/18 12:18:35;;;;;;;4.07;2.30;;;14.70;96.30;;;;;;4953355;29;20415;-78
2021/09/18 12:21:07;;;;;;;5.03;2.70;;;14.60;96.30;;;;;;4952756;28;20477;-78
2021/09/18 12:23:40;;;;;;;5.33;2.37;;;14.40;96.30;;;;;;4954579;28;20399;-78
2021/09/18 12:26:06;;;;;;;3.53;1.83;;;14.50;96.30;;;;;;4953262;29;20406;-78
2021/09/18 12:28:33;;;;;;;3.77;2.53;;;14.50;96.30;;;;;;4954322;28;20416;-78
2021/09/18 12:31:00;;;;;;;9.90;2.03;;;14.50;96.30;;;;;;4952467;28;20434;-78
2021/09/18 12:33:34;;;;;;;5.43;2.70;;;14.60;96.30;;;;;;4954117;29;20429;-78
2021/09/18 12:36:06;;;;;;;3.70;2.40;;;14.80;96.30;;;;;;4953720;29;20838;-78
2021/09/18 12:38:32;;;;;;;3.33;2.33;;;15.00;96.30;;;;;;4956304;28;20489;-78
2021/09/18 12:41:02;;;;;;;6.83;3.40;;;15.00;96.30;;;;;;4954482;28;21002;-78
2021/09/18 12:43:27;;;;;;;3.30;2.87;;;15.00;96.30;;;;;;4955365;28;20159;-78
2021/09/18 12:46:08;;;;;;;5.77;2.90;;;14.90;96.30;;;;;;4954801;28;20816;-78
2021/09/18 12:48:34;;;;;;;3.20;2.90;;;14.60;96.30;;;;;;4955182;28;20161;-78
2021/09/18 12:51:09;;;;;;;3.27;2.97;;;14.40;96.30;;;;;;4958480;28;20484;-81
2021/09/18 12:53:49;;;;;;;4.37;3.10;;;14.30;96.30;;;;;;4958668;28;20390;-78
2021/09/18 12:56:36;;;;;;;3.00;2.70;;;14.20;96.30;;;;;;4957473;29;20430;-79
2021/09/18 12:59:04;;;;;;;5.03;3.20;;;14.10;96.30;;;;;;4959449;28;20434;-80
2021/09/18 13:01:40;;;;;;;4.63;2.80;;;13.70;96.30;;;;;;4959484;28;20830;-80
2021/09/18 13:04:13;;;;;;;3.10;2.80;;;13.70;96.30;;;;;;4958399;29;20853;-81
2021/09/18 13:06:52;;;;;;;2.83;2.43;;;13.70;96.30;;;;;;4958602;29;20413;-80
2021/09/18 13:09:21;;;;;;;2.70;2.00;;;13.80;96.30;;;;;;4959357;28;20485;-80
2021/09/18 13:11:50;;;;;;;2.13;2.03;;;13.80;96.30;;;;;;4958906;28;20449;-83
2021/09/18 13:14:18;;;;;;;2.47;2.27;;;13.90;96.30;;;;;;4961241;28;20414;-81
2021/09/18 13:17:17;;;;;;;2.30;1.97;;;14.00;96.30;;;;;;4958929;29;20426;-85
2021/09/18 13:19:44;;;;;;;2.00;1.80;;;14.00;96.30;;;;;;4937723;28;20441;-80
2021/09/18 13:22:12;;;;;;;1.60;1.50;;;14.00;96.30;;;;;;4959076;28;20450;-80
2021/09/18 13:24:37;;;;;;;1.40;1.30;;;14.00;96.30;;;;;;4959664;28;20410;-80
2021/09/18 13:27:03;;;;;;;1.50;1.40;;;14.00;96.30;;;;;;4958219;29;20411;-81
2021/09/18 13:29:29;;;;;;;1.80;1.70;;;14.00;96.30;;;;;;4959534;28;20179;-80
2021/09/18 13:31:54;;;;;;;1.37;1.27;;;14.00;96.30;;;;;;4957972;28;20563;-80
2021/09/18 13:34:20;;;;;;;1.57;1.47;;;14.10;96.30;;;;;;4960000;28;20195;-81
2021/09/18 13:36:45;;;;;;;1.40;1.30;;;14.10;96.30;;;;;;4959018;29;20186;-81
2021/09/18 13:39:11;;;;;;;2.23;1.70;;;14.00;96.30;;;;;;4959711;29;20215;-80
2021/09/18 13:41:36;;;;;;;1.60;1.50;;;13.70;96.30;;;;;;4960315;28;20225;-80
2021/09/18 13:44:02;;;;;;;2.20;1.97;;;13.50;96.30;;;;;;4959533;28;20186;-81
2021/09/18 13:46:27;;;;;;;2.77;2.57;;;13.40;96.30;;;;;;4959745;28;20175;-80
2021/09/18 13:48:53;;;;;;;3.03;2.77;;;13.50;96.30;;;;;;4957888;29;20520;-80
2021/09/18 13:51:19;;;;;;;3.50;3.20;;;13.50;96.30;;;;;;4957203;28;20661;-81
2021/09/18 13:53:44;;;;;;;3.27;3.07;;;13.60;96.30;;;;;;4957968;29;20185;-80
2021/09/18 13:56:10;;;;;;;3.00;2.80;;;13.50;96.30;;;;;;4957907;29;20273;-81
2021/09/18 13:58:36;;;;;;;3.27;3.07;;;13.50;96.30;;;;;;4957344;29;20178;-80
2021/09/18 14:01:03;;;;;;;4.03;3.17;;;13.40;96.30;;;;;;4955917;28;20699;-80
2021/09/18 14:03:31;;;;;;;3.60;3.40;;;13.30;96.30;;;;;;4957399;29;20270;-80
2021/09/18 14:05:56;;;;;;;3.47;3.27;;;13.30;96.30;;;;;;4958769;28;20419;-80
2021/09/18 14:08:22;;;;;;;3.10;2.90;;;13.30;96.30;;;;;;4957601;29;20411;-80
2021/09/18 14:10:47;;;;;;;3.70;3.50;;;13.20;96.30;;;;;;4958614;28;20242;-79
2021/09/18 14:13:13;;;;;;;4.47;4.17;;;13.20;96.30;;;;;;4958291;28;20175;-80
2021/09/18 14:15:38;;;;;;;5.40;5.03;;;13.00;96.30;;;;;;4958472;28;20649;-82
2021/09/18 14:18:05;;;;;;;5.63;5.23;;;13.00;96.30;;;;;;4958548;28;20536;-80
2021/09/18 14:20:31;;;;;;;5.97;5.47;;;13.00;96.30;;;;;;4958502;28;20207;-80
2021/09/18 14:22:57;;;;;;;5.60;5.20;;;13.00;96.30;;;;;;4956515;29;20930;-80
2021/09/18 14:25:23;;;;;;;5.50;4.90;;;12.90;96.30;;;;;;4958231;28;20167;-80
2021/09/18 14:27:49;;;;;;;5.00;4.60;;;12.90;96.30;;;;;;4958701;28;20167;-81
2021/09/18 14:30:14;;;;;;;5.50;5.10;;;13.10;96.30;;;;;;4958389;28;20474;-79
2021/09/18 14:32:40;;;;;;;5.20;4.80;;;13.10;96.30;;;;;;4956912;29;20197;-80
2021/09/18 14:35:06;;;;;;;4.80;4.37;;;13.20;96.30;;;;;;4958332;28;20579;-80
2021/09/18 14:37:31;;;;;;;5.30;4.90;;;13.30;96.30;;;;;;4957657;28;20647;-81
2021/09/18 14:39:56;;;;;;;4.53;4.23;;;13.20;96.30;;;;;;4957871;28;20215;-79
2021/09/18 14:42:22;;;;;;;5.10;4.70;;;13.20;96.30;;;;;;4958051;28;20273;-80
2021/09/18 14:44:48;;;;;;;5.00;4.60;;;13.20;96.30;;;;;;4960797;28;20179;-80
2021/09/18 14:47:15;;;;;;;4.37;4.07;;;13.10;96.30;;;;;;4956311;29;20195;-79
2021/09/18 14:49:40;;;;;;;4.93;4.53;;;13.10;96.30;;;;;;4957829;28;20415;-80
2021/09/18 14:52:06;;;;;;;4.60;4.27;;;13.10;96.30;;;;;;4959339;28;20569;-80
2021/09/18 14:54:31;;;;;;;5.23;4.83;;;13.00;96.30;;;;;;4966710;28;20175;-79
2021/09/18 14:56:57;;;;;;;5.30;4.70;;;13.00;96.30;;;;;;4964343;28;20203;-79
2021/09/18 14:59:22;;;;;;;6.10;5.60;;;13.00;96.30;;;;;;4955851;29;20208;-79
2021/09/18 15:01:48;;;;;;;5.73;5.23;;;13.10;96.30;;;;;;4956623;28;20257;-81
2021/09/18 15:04:13;;;;;;;5.10;4.70;;;13.10;96.30;;;;;;4956755;28;20191;-79
2021/09/18 15:06:39;;;;;;;5.57;5.07;;;13.10;96.30;;;;;;4962789;28;20175;-80
2021/09/18 15:09:04;;;;;;;5.93;5.33;;;13.10;96.30;;;;;;4961999;28;20204;-81
2021/09/18 15:11:30;;;;;;;5.33;4.93;;;13.00;96.30;;;;;;4960995;28;20293;-80
2021/09/18 15:13:55;;;;;;;5.20;4.80;;;12.90;96.30;;;;;;4955749;28;20186;-79
2021/09/18 15:16:21;;;;;;;6.30;5.23;;;12.90;96.30;;;;;;4955085;29;20190;-79
2021/09/18 15:18:47;;;;;;;5.47;5.07;;;12.80;96.30;;;;;;4956046;28;20599;-80
2021/09/18 15:21:13;;;;;;;6.73;5.20;;;12.80;96.30;;;;;;4955381;28;20233;-80
2021/09/18 15:23:39;;;;;;;7.50;6.60;;;12.80;96.30;;;;;;4956113;28;20202;-80
2021/09/18 15:26:05;;;;;;;5.03;4.63;;;12.70;96.30;;;;;;4955844;28;20442;-80
2021/09/18 15:28:30;;;;;;;7.40;5.70;;;12.70;96.30;;;;;;4955734;28;20717;-78
2021/09/18 15:30:56;;;;;;;5.77;5.27;;;12.70;96.30;;;;;;4955317;28;20250;-80
2021/09/18 15:33:22;;;;;;;6.40;5.90;;;12.70;96.30;;;;;;4955333;28;20183;-79
2021/09/18 15:35:48;;;;;;;5.67;4.90;;;12.70;96.30;;;;;;4955417;28;20179;-79
2021/09/18 15:38:15;;;;;;;5.37;4.87;;;12.70;96.30;;;;;;4953941;29;20534;-80
2021/09/18 15:40:42;;;;;;;5.10;4.70;;;12.80;96.30;;;;;;4954991;28;20285;-81
2021/09/18 15:43:08;;;;;;;5.57;4.97;;;12.80;96.30;;;;;;4954461;28;20461;-79
2021/09/18 15:45:33;;;;;;;5.83;5.33;;;12.90;96.30;;;;;;4955367;28;20419;-80
2021/09/18 15:47:59;;;;;;;6.10;5.50;;;12.90;96.30;;;;;;4957025;28;20167;-80
2021/09/18 15:50:24;;;;;;;5.73;5.23;;;12.90;96.30;;;;;;4956367;28;20206;-80
2021/09/18 15:52:50;;;;;;;6.03;5.53;;;12.90;96.30;;;;;;4955632;28;20641;-79
2021/09/18 15:55:15;;;;;;;5.33;4.87;;;12.90;96.30;;;;;;4956029;28;20187;-80
2021/09/18 15:57:41;;;;;;;4.97;4.57;;;12.90;96.30;;;;;;4955758;28;20551;-79
2021/09/18 16:00:07;;;;;;;6.00;5.50;;;12.90;96.30;;;;;;4955798;28;20217;-79
2021/09/18 16:02:32;;;;;;;5.40;4.93;;;12.90;96.30;;;;;;4955021;28;20199;-78
2021/09/18 16:04:59;;;;;;;6.33;5.63;;;13.00;96.30;;;;;;4954580;29;20469;-80
2021/09/18 16:07:24;;;;;;;6.30;5.70;;;13.00;96.30;;;;;;4954315;29;20175;-80
2021/09/18 16:09:50;;;;;;;6.80;6.30;;;12.90;96.30;;;;;;4955728;28;20411;-80
2021/09/18 16:12:15;;;;;;;5.93;5.30;;;12.80;96.30;;;;;;4954727;28;20254;-78
2021/09/18 16:14:41;;;;;;;7.03;6.43;;;12.80;96.30;;;;;;4954554;29;20182;-78
2021/09/18 16:17:07;;;;;;;6.90;6.20;;;12.80;96.30;;;;;;4957662;29;20270;-79
2021/09/18 16:19:32;;;;;;;6.43;5.83;;;12.80;96.30;;;;;;4956032;29;20171;-79
2021/09/18 16:21:58;;;;;;;7.40;6.80;;;12.80;96.30;;;;;;4954739;28;20297;-78
2021/09/18 16:24:23;;;;;;;7.70;7.00;;;12.80;96.30;;;;;;4955838;28;20181;-81
2021/09/18 16:26:49;;;;;;;10.40;9.37;;;12.70;96.30;;;;;;4955282;28;20179;-81
2021/09/18 16:29:14;;;;;;;6.70;6.17;;;12.70;96.30;;;;;;4954978;28;20187;-81
2021/09/18 16:31:40;;;;;;;7.43;6.17;;;12.70;96.30;;;;;;4954436;28;20580;-77
2021/09/18 16:34:06;;;;;;;6.90;6.20;;;12.70;96.30;;;;;;4956500;28;20175;-76
2021/09/18 16:36:31;;;;;;;6.40;5.90;;;12.70;96.30;;;;;;4955370;29;20186;-77
2021/09/18 16:38:57;;;;;;;6.23;5.73;;;12.70;96.30;;;;;;4956571;28;20194;-79
2021/09/18 16:41:22;;;;;;;6.23;5.73;;;12.70;96.30;;;;;;4955970;28;20242;-77
2021/09/18 16:43:48;;;;;;;4.40;4.00;;;12.70;96.30;;;;;;4957049;28;20167;-77
2021/09/18 16:46:13;;;;;;;3.83;3.53;;;12.70;96.30;;;;;;4955690;29;20197;-79
2021/09/18 16:48:39;;;;;;;4.60;4.23;;;12.60;96.30;;;;;;4956983;28;20222;-77
2021/09/18 16:51:06;;;;;;;4.27;3.97;;;12.70;96.30;;;;;;4956804;28;20206;-77
2021/09/18 16:53:32;;;;;;;4.67;4.27;;;12.70;96.30;;;;;;4956482;28;20852;-76
2021/09/18 16:55:57;;;;;;;4.17;3.50;;;12.70;96.30;;;;;;4954728;29;20453;-75
2021/09/18 16:58:23;;;;;;;2.70;2.50;;;12.70;96.30;;;;;;4955641;28;20255;-75
2021/09/18 17:00:49;;;;;;;6.43;2.60;;;12.70;96.30;;;;;;4955675;28;20222;-75
2021/09/18 17:03:14;;;;;;;2.70;2.50;;;12.60;96.30;;;;;;4955676;28;20777;-76
2021/09/18 17:05:40;;;;;;;3.37;3.17;;;12.60;96.30;;;;;;4956653;28;20179;-77
2021/09/18 17:08:06;;;;;;;2.70;2.50;;;12.70;96.30;;;;;;4957453;28;20182;-76
2021/09/18 17:10:32;;;;;;;2.67;2.47;;;12.60;96.30;;;;;;4956676;28;20178;-75
2021/09/18 17:12:58;;;;;;;4.03;2.30;;;12.60;96.30;;;;;;4955894;28;20179;-75
2021/09/18 17:15:24;;;;;;;2.97;2.77;;;12.60;96.30;;;;;;4956776;28;20421;-76